DAL76 KMCO-KPHF
Flight info
| Callsign | DAL76 |
|---|---|
| Flight time | 1h 25m |
| Altitude | 37000 |
| Route | FATHE4 VIYAP Q87 JROSS Q135 ZORDO RREGG KOHLS1 |
| Aircraft | A321/M-SDE3FGHIRWY/LB1 |
Departure
| Time | 2026-04-19 23:05 |
|---|---|
| Airport | Orlando International Airport (KMCO) |
Arrival
| Time | 2026-04-20 00:31 |
|---|---|
| Airport | Newport News Williamsburg International Airport (KPHF) |
| Time | Latitude | Longitude | Altitude | Speed | Heading |
|---|---|---|---|---|---|
| 2026-04-19 22:28 | 28.43316 | -81.31570 | 102 ft | 0 kts | 16° |
| 2026-04-19 22:38 | 28.43313 | -81.31571 | 102 ft | 3 kts | 16° |
| 2026-04-19 22:39 | 28.43288 | -81.31578 | 102 ft | 4 kts | 1° |
| 2026-04-19 22:39 | 28.43268 | -81.31573 | 102 ft | 4 kts | 292° |
| 2026-04-19 22:39 | 28.43266 | -81.31567 | 102 ft | 0 kts | 280° |
| 2026-04-19 22:51 | 28.43268 | -81.31580 | 102 ft | 6 kts | 281° |
| 2026-04-19 22:51 | 28.43276 | -81.31629 | 102 ft | 7 kts | 281° |
| 2026-04-19 22:52 | 28.43279 | -81.31645 | 102 ft | 1 kts | 280° |
| 2026-04-19 22:52 | 28.43280 | -81.31654 | 102 ft | 3 kts | 280° |
| 2026-04-19 22:52 | 28.43278 | -81.31736 | 101 ft | 15 kts | 252° |
| 2026-04-19 22:52 | 28.43206 | -81.31835 | 103 ft | 19 kts | 201° |
| 2026-04-19 22:53 | 28.43081 | -81.31840 | 103 ft | 18 kts | 179° |
| 2026-04-19 22:53 | 28.42960 | -81.31838 | 102 ft | 17 kts | 179° |
| 2026-04-19 22:53 | 28.42842 | -81.31835 | 103 ft | 16 kts | 179° |
| 2026-04-19 22:53 | 28.42717 | -81.31836 | 106 ft | 21 kts | 180° |
| 2026-04-19 22:54 | 28.42575 | -81.31833 | 107 ft | 20 kts | 179° |
| 2026-04-19 22:54 | 28.42435 | -81.31832 | 105 ft | 20 kts | 180° |
| 2026-04-19 22:54 | 28.42347 | -81.31785 | 106 ft | 8 kts | 99° |
| 2026-04-19 22:54 | 28.42347 | -81.31672 | 104 ft | 22 kts | 92° |
| 2026-04-19 22:55 | 28.42347 | -81.31485 | 101 ft | 24 kts | 88° |
| 2026-04-19 22:55 | 28.42352 | -81.31294 | 100 ft | 24 kts | 88° |
| 2026-04-19 22:55 | 28.42332 | -81.31110 | 100 ft | 23 kts | 99° |
| 2026-04-19 22:55 | 28.42318 | -81.30930 | 100 ft | 23 kts | 86° |
| 2026-04-19 22:56 | 28.42330 | -81.30761 | 106 ft | 19 kts | 85° |
| 2026-04-19 22:56 | 28.42341 | -81.30618 | 106 ft | 17 kts | 85° |
| 2026-04-19 22:56 | 28.42351 | -81.30488 | 106 ft | 16 kts | 85° |
| 2026-04-19 22:56 | 28.42293 | -81.30384 | 101 ft | 16 kts | 132° |
| 2026-04-19 22:57 | 28.42275 | -81.30272 | 102 ft | 14 kts | 86° |
| 2026-04-19 22:57 | 28.42279 | -81.30165 | 102 ft | 13 kts | 89° |
| 2026-04-19 22:57 | 28.42279 | -81.30068 | 103 ft | 11 kts | 90° |
| 2026-04-19 22:57 | 28.42280 | -81.29985 | 103 ft | 10 kts | 90° |
| 2026-04-19 22:58 | 28.42280 | -81.29878 | 104 ft | 15 kts | 90° |
| 2026-04-19 22:58 | 28.42222 | -81.29795 | 102 ft | 15 kts | 163° |
| 2026-04-19 22:58 | 28.42112 | -81.29787 | 102 ft | 20 kts | 182° |
| 2026-04-19 22:58 | 28.42046 | -81.29787 | 102 ft | 6 kts | 180° |
| 2026-04-19 22:59 | 28.42039 | -81.29787 | 102 ft | 2 kts | 180° |
| 2026-04-19 22:59 | 28.41970 | -81.29789 | 102 ft | 17 kts | 181° |
| 2026-04-19 22:59 | 28.41857 | -81.29789 | 102 ft | 14 kts | 179° |
| 2026-04-19 22:59 | 28.41788 | -81.29728 | 101 ft | 13 kts | 115° |
| 2026-04-19 23:00 | 28.41713 | -81.29693 | 103 ft | 14 kts | 180° |
| 2026-04-19 23:00 | 28.41619 | -81.29693 | 105 ft | 13 kts | 180° |
| 2026-04-19 23:00 | 28.41528 | -81.29693 | 105 ft | 15 kts | 179° |
| 2026-04-19 23:00 | 28.41393 | -81.29691 | 101 ft | 22 kts | 179° |
| 2026-04-19 23:01 | 28.41243 | -81.29690 | 102 ft | 21 kts | 180° |
| 2026-04-19 23:01 | 28.41099 | -81.29690 | 101 ft | 21 kts | 180° |
| 2026-04-19 23:01 | 28.40949 | -81.29689 | 100 ft | 22 kts | 180° |
| 2026-04-19 23:01 | 28.40833 | -81.29688 | 98 ft | 21 kts | 180° |
| 2026-04-19 23:02 | 28.40782 | -81.29692 | 101 ft | 0 kts | 187° |
| 2026-04-19 23:02 | 28.40781 | -81.29692 | 100 ft | 1 kts | 191° |
| 2026-04-19 23:02 | 28.40778 | -81.29724 | 100 ft | 7 kts | 279° |
| 2026-04-19 23:02 | 28.40799 | -81.29751 | 99 ft | 3 kts | 346° |
| 2026-04-19 23:03 | 28.40810 | -81.29745 | 99 ft | 1 kts | 59° |
| 2026-04-19 23:03 | 28.40816 | -81.29729 | 102 ft | 5 kts | 68° |
| 2026-04-19 23:03 | 28.40821 | -81.29685 | 100 ft | 6 kts | 92° |
| 2026-04-19 23:03 | 28.40821 | -81.29633 | 99 ft | 7 kts | 89° |
| 2026-04-19 23:04 | 28.40826 | -81.29579 | 97 ft | 7 kts | 67° |
| 2026-04-19 23:04 | 28.40865 | -81.29558 | 99 ft | 6 kts | 0° |
| 2026-04-19 23:04 | 28.40873 | -81.29559 | 97 ft | 0 kts | 358° |
| 2026-04-19 23:04 | 28.40982 | -81.29561 | 98 ft | 55 kts | 359° |
| 2026-04-19 23:05 | 28.41630 | -81.29567 | 106 ft | 123 kts | 359° |
| 2026-04-19 23:05 | 28.42651 | -81.29577 | 111 ft | 167 kts | 359° |
| 2026-04-19 23:05 | 28.43831 | -81.29582 | 640 ft | 167 kts | 0° |
| 2026-04-19 23:05 | 28.44989 | -81.29417 | 1247 ft | 169 kts | 16° |
| 2026-04-19 23:06 | 28.46042 | -81.28832 | 1837 ft | 170 kts | 27° |
| 2026-04-19 23:06 | 28.47129 | -81.28142 | 2110 ft | 190 kts | 28° |
| 2026-04-19 23:06 | 28.48357 | -81.27353 | 2345 ft | 216 kts | 28° |
| 2026-04-19 23:06 | 28.49727 | -81.26466 | 2685 ft | 239 kts | 28° |
| 2026-04-19 23:07 | 28.51251 | -81.25539 | 3083 ft | 259 kts | 19° |
| 2026-04-19 23:07 | 28.53029 | -81.25211 | 3760 ft | 266 kts | 2° |
| 2026-04-19 23:07 | 28.54895 | -81.25091 | 4601 ft | 271 kts | 359° |
| 2026-04-19 23:07 | 28.56790 | -81.25109 | 5468 ft | 273 kts | 356° |
| 2026-04-19 23:08 | 28.58689 | -81.25222 | 6283 ft | 276 kts | 352° |
| 2026-04-19 23:08 | 28.60613 | -81.25493 | 6814 ft | 281 kts | 350° |
| 2026-04-19 23:08 | 28.62537 | -81.25815 | 6960 ft | 279 kts | 350° |
| 2026-04-19 23:08 | 28.64480 | -81.26133 | 7596 ft | 282 kts | 350° |
| 2026-04-19 23:09 | 28.66426 | -81.26422 | 8471 ft | 282 kts | 351° |
| 2026-04-19 23:09 | 28.68380 | -81.26698 | 9302 ft | 283 kts | 351° |
| 2026-04-19 23:09 | 28.70345 | -81.26969 | 10088 ft | 285 kts | 350° |
| 2026-04-19 23:09 | 28.72364 | -81.27247 | 10522 ft | 302 kts | 351° |
| 2026-04-19 23:10 | 28.74523 | -81.27549 | 10673 ft | 323 kts | 351° |
| 2026-04-19 23:10 | 28.76819 | -81.27876 | 10881 ft | 343 kts | 351° |
| 2026-04-19 23:10 | 28.79176 | -81.28208 | 11423 ft | 348 kts | 351° |
| 2026-04-19 23:10 | 28.81599 | -81.28530 | 12043 ft | 353 kts | 351° |
| 2026-04-19 23:11 | 28.84054 | -81.28846 | 12623 ft | 357 kts | 351° |
| 2026-04-19 23:11 | 28.86550 | -81.29124 | 13234 ft | 363 kts | 353° |
| 2026-04-19 23:11 | 28.89080 | -81.29347 | 13838 ft | 367 kts | 353° |
| 2026-04-19 23:11 | 28.91644 | -81.29547 | 14392 ft | 371 kts | 353° |
| 2026-04-19 23:12 | 28.94232 | -81.29744 | 14956 ft | 375 kts | 353° |
| 2026-04-19 23:12 | 28.96847 | -81.29947 | 15511 ft | 378 kts | 353° |
| 2026-04-19 23:12 | 28.99479 | -81.30161 | 16070 ft | 381 kts | 353° |
| 2026-04-19 23:12 | 29.02135 | -81.30412 | 16641 ft | 384 kts | 352° |
| 2026-04-19 23:13 | 29.04807 | -81.30702 | 17183 ft | 387 kts | 351° |
| 2026-04-19 23:13 | 29.07493 | -81.31015 | 17702 ft | 390 kts | 351° |
| 2026-04-19 23:13 | 29.10166 | -81.31331 | 18186 ft | 392 kts | 351° |
| 2026-04-19 23:13 | 29.12903 | -81.31610 | 18634 ft | 397 kts | 353° |
| 2026-04-19 23:14 | 29.15673 | -81.31810 | 19091 ft | 401 kts | 353° |
| 2026-04-19 23:14 | 29.18472 | -81.31966 | 19547 ft | 404 kts | 354° |
| 2026-04-19 23:14 | 29.21287 | -81.32105 | 20001 ft | 406 kts | 354° |
| 2026-04-19 23:14 | 29.24126 | -81.32244 | 20441 ft | 409 kts | 354° |
| 2026-04-19 23:15 | 29.26979 | -81.32391 | 20894 ft | 412 kts | 353° |
| 2026-04-19 23:15 | 29.29856 | -81.32550 | 21330 ft | 416 kts | 353° |
| 2026-04-19 23:15 | 29.32757 | -81.32721 | 21779 ft | 419 kts | 352° |
| 2026-04-19 23:15 | 29.35679 | -81.32902 | 22227 ft | 422 kts | 352° |
| 2026-04-19 23:16 | 29.38614 | -81.33087 | 22661 ft | 424 kts | 352° |
| 2026-04-19 23:16 | 29.41577 | -81.33272 | 23088 ft | 427 kts | 352° |
| 2026-04-19 23:16 | 29.44512 | -81.33455 | 23485 ft | 430 kts | 352° |
| 2026-04-19 23:16 | 29.47514 | -81.33640 | 23854 ft | 434 kts | 352° |
| 2026-04-19 23:17 | 29.50535 | -81.33822 | 24227 ft | 436 kts | 352° |
| 2026-04-19 23:17 | 29.53570 | -81.34000 | 24609 ft | 438 kts | 351° |
| 2026-04-19 23:17 | 29.56621 | -81.34179 | 25021 ft | 439 kts | 351° |
| 2026-04-19 23:17 | 29.59680 | -81.34362 | 25406 ft | 441 kts | 351° |
| 2026-04-19 23:18 | 29.62750 | -81.34545 | 25793 ft | 443 kts | 351° |
| 2026-04-19 23:18 | 29.65830 | -81.34728 | 26166 ft | 444 kts | 351° |
| 2026-04-19 23:18 | 29.68924 | -81.34906 | 26534 ft | 446 kts | 351° |
| 2026-04-19 23:18 | 29.72029 | -81.35083 | 26896 ft | 448 kts | 351° |
| 2026-04-19 23:19 | 29.75150 | -81.35263 | 27254 ft | 450 kts | 351° |
| 2026-04-19 23:19 | 29.78239 | -81.35436 | 27608 ft | 452 kts | 351° |
| 2026-04-19 23:19 | 29.81387 | -81.35612 | 27956 ft | 454 kts | 351° |
| 2026-04-19 23:19 | 29.84546 | -81.35791 | 28318 ft | 455 kts | 351° |
| 2026-04-19 23:20 | 29.87715 | -81.35977 | 28603 ft | 458 kts | 351° |
| 2026-04-19 23:20 | 29.90907 | -81.36164 | 28898 ft | 460 kts | 350° |
| 2026-04-19 23:20 | 29.94109 | -81.36354 | 29203 ft | 462 kts | 350° |
| 2026-04-19 23:20 | 29.97324 | -81.36540 | 29511 ft | 464 kts | 350° |
| 2026-04-19 23:21 | 30.00545 | -81.36724 | 29800 ft | 465 kts | 350° |
| 2026-04-19 23:21 | 30.03784 | -81.36907 | 30081 ft | 467 kts | 350° |
| 2026-04-19 23:21 | 30.07033 | -81.37090 | 30397 ft | 466 kts | 350° |
| 2026-04-19 23:21 | 30.10225 | -81.37270 | 30740 ft | 465 kts | 350° |
| 2026-04-19 23:22 | 30.13453 | -81.37450 | 31132 ft | 465 kts | 350° |
| 2026-04-19 23:22 | 30.16678 | -81.37633 | 31490 ft | 464 kts | 349° |
| 2026-04-19 23:22 | 30.19899 | -81.37817 | 31889 ft | 462 kts | 349° |
| 2026-04-19 23:22 | 30.23103 | -81.38002 | 32297 ft | 460 kts | 349° |
| 2026-04-19 23:23 | 30.26293 | -81.38187 | 32711 ft | 458 kts | 349° |
| 2026-04-19 23:23 | 30.29470 | -81.38372 | 33127 ft | 456 kts | 348° |
| 2026-04-19 23:23 | 30.32633 | -81.38558 | 33533 ft | 454 kts | 348° |
| 2026-04-19 23:23 | 30.35780 | -81.38745 | 33934 ft | 452 kts | 348° |
| 2026-04-19 23:24 | 30.38917 | -81.38932 | 34300 ft | 450 kts | 348° |
| 2026-04-19 23:24 | 30.42044 | -81.39116 | 34643 ft | 449 kts | 348° |
| 2026-04-19 23:24 | 30.45112 | -81.39295 | 34988 ft | 447 kts | 347° |
| 2026-04-19 23:24 | 30.48212 | -81.39472 | 35339 ft | 445 kts | 347° |
| 2026-04-19 23:25 | 30.51296 | -81.39638 | 35680 ft | 443 kts | 347° |
| 2026-04-19 23:25 | 30.54369 | -81.39797 | 36011 ft | 442 kts | 347° |
| 2026-04-19 23:25 | 30.57433 | -81.39951 | 36347 ft | 440 kts | 347° |
| 2026-04-19 23:25 | 30.60482 | -81.40105 | 36659 ft | 438 kts | 347° |
| 2026-04-19 23:26 | 30.63519 | -81.40260 | 36964 ft | 436 kts | 346° |
| 2026-04-19 23:26 | 30.66548 | -81.40418 | 37074 ft | 435 kts | 346° |
| 2026-04-19 23:26 | 30.72529 | -81.40734 | 37095 ft | 432 kts | 346° |
| 2026-04-19 23:27 | 30.78526 | -81.41063 | 37091 ft | 431 kts | 346° |
| 2026-04-19 23:27 | 30.84526 | -81.41385 | 37086 ft | 431 kts | 346° |
| 2026-04-19 23:28 | 30.90522 | -81.41703 | 37074 ft | 431 kts | 346° |
| 2026-04-19 23:28 | 30.96517 | -81.42030 | 37096 ft | 433 kts | 346° |
| 2026-04-19 23:29 | 31.02630 | -81.42378 | 37063 ft | 445 kts | 346° |
| 2026-04-19 23:29 | 31.08807 | -81.42703 | 37064 ft | 449 kts | 347° |
| 2026-04-19 23:30 | 31.15049 | -81.43019 | 37063 ft | 449 kts | 346° |
| 2026-04-19 23:30 | 31.21293 | -81.43349 | 37082 ft | 450 kts | 347° |
| 2026-04-19 23:31 | 31.24466 | -81.43152 | 37121 ft | 465 kts | 358° |
| 2026-04-19 23:31 | 31.27658 | -81.42205 | 37107 ft | 483 kts | 10° |
| 2026-04-19 23:31 | 31.33863 | -81.38900 | 37106 ft | 491 kts | 14° |
| 2026-04-19 23:32 | 31.40051 | -81.35523 | 37095 ft | 491 kts | 14° |
| 2026-04-19 23:32 | 31.46206 | -81.32180 | 37081 ft | 490 kts | 14° |
| 2026-04-19 23:33 | 31.52400 | -81.28816 | 37110 ft | 491 kts | 14° |
| 2026-04-19 23:33 | 31.58599 | -81.25450 | 37082 ft | 490 kts | 14° |
| 2026-04-19 23:34 | 31.64775 | -81.22076 | 37081 ft | 490 kts | 14° |
| 2026-04-19 23:34 | 31.70951 | -81.18699 | 37053 ft | 489 kts | 14° |
| 2026-04-19 23:35 | 31.77115 | -81.15324 | 37067 ft | 488 kts | 14° |
| 2026-04-19 23:35 | 31.83235 | -81.11973 | 37053 ft | 488 kts | 14° |
| 2026-04-19 23:36 | 31.89395 | -81.08610 | 37043 ft | 488 kts | 14° |
| 2026-04-19 23:36 | 31.95555 | -81.05227 | 37041 ft | 489 kts | 14° |
| 2026-04-19 23:37 | 32.01719 | -81.01826 | 37038 ft | 489 kts | 14° |
| 2026-04-19 23:37 | 32.07825 | -80.98415 | 37010 ft | 488 kts | 15° |
| 2026-04-19 23:38 | 32.13969 | -80.94970 | 37007 ft | 489 kts | 15° |
| 2026-04-19 23:38 | 32.20131 | -80.91513 | 37038 ft | 491 kts | 15° |
| 2026-04-19 23:39 | 32.26304 | -80.88042 | 37054 ft | 492 kts | 15° |
| 2026-04-19 23:39 | 32.32489 | -80.84566 | 37085 ft | 493 kts | 15° |
| 2026-04-19 23:40 | 32.38682 | -80.81078 | 37058 ft | 493 kts | 15° |
| 2026-04-19 23:40 | 32.44832 | -80.77601 | 37051 ft | 493 kts | 15° |
| 2026-04-19 23:41 | 32.51040 | -80.74101 | 37055 ft | 494 kts | 15° |
| 2026-04-19 23:41 | 32.57247 | -80.70595 | 37070 ft | 495 kts | 15° |
| 2026-04-19 23:42 | 32.63464 | -80.67073 | 37041 ft | 496 kts | 15° |
| 2026-04-19 23:42 | 32.69607 | -80.63369 | 37032 ft | 508 kts | 24° |
| 2026-04-19 23:43 | 32.72438 | -80.60781 | 37018 ft | 522 kts | 35° |
| 2026-04-19 23:43 | 32.74947 | -80.57602 | 37021 ft | 530 kts | 41° |
| 2026-04-19 23:43 | 32.79787 | -80.50984 | 37048 ft | 530 kts | 41° |
| 2026-04-19 23:44 | 32.84652 | -80.44389 | 37030 ft | 531 kts | 41° |
| 2026-04-19 23:44 | 32.89528 | -80.37794 | 37027 ft | 531 kts | 41° |
| 2026-04-19 23:45 | 32.94367 | -80.31214 | 37026 ft | 532 kts | 41° |
| 2026-04-19 23:45 | 32.99237 | -80.24577 | 37025 ft | 532 kts | 41° |
| 2026-04-19 23:46 | 33.04106 | -80.17924 | 37028 ft | 533 kts | 42° |
| 2026-04-19 23:46 | 33.08982 | -80.11255 | 37034 ft | 533 kts | 41° |
| 2026-04-19 23:47 | 33.13846 | -80.04598 | 37038 ft | 532 kts | 41° |
| 2026-04-19 23:47 | 33.18706 | -79.97931 | 37036 ft | 532 kts | 42° |
| 2026-04-19 23:48 | 33.23550 | -79.91254 | 37028 ft | 532 kts | 41° |
| 2026-04-19 23:48 | 33.28362 | -79.84629 | 37047 ft | 532 kts | 42° |
| 2026-04-19 23:49 | 33.33212 | -79.77939 | 37022 ft | 532 kts | 42° |
| 2026-04-19 23:49 | 33.38047 | -79.71253 | 37024 ft | 531 kts | 41° |
| 2026-04-19 23:50 | 33.42885 | -79.64557 | 37026 ft | 532 kts | 41° |
| 2026-04-19 23:50 | 33.47717 | -79.57843 | 37009 ft | 532 kts | 42° |
| 2026-04-19 23:51 | 33.52536 | -79.51131 | 36995 ft | 530 kts | 42° |
| 2026-04-19 23:51 | 33.57301 | -79.44495 | 36983 ft | 528 kts | 42° |
| 2026-04-19 23:52 | 33.62095 | -79.37815 | 36999 ft | 528 kts | 42° |
| 2026-04-19 23:52 | 33.66878 | -79.31130 | 36998 ft | 528 kts | 42° |
| 2026-04-19 23:53 | 33.71649 | -79.24441 | 37009 ft | 526 kts | 42° |
| 2026-04-19 23:53 | 33.76416 | -79.17769 | 36989 ft | 526 kts | 42° |
| 2026-04-19 23:54 | 33.81178 | -79.11085 | 37001 ft | 526 kts | 43° |
| 2026-04-19 23:54 | 33.85125 | -79.05528 | 36979 ft | 526 kts | 43° |
| 2026-04-19 23:55 | 33.90649 | -78.97749 | 36998 ft | 525 kts | 43° |
| 2026-04-19 23:55 | 33.95390 | -78.91060 | 36993 ft | 525 kts | 43° |
| 2026-04-19 23:56 | 33.99317 | -78.85502 | 37007 ft | 524 kts | 43° |
| 2026-04-19 23:56 | 34.04045 | -78.78807 | 36991 ft | 525 kts | 43° |
| 2026-04-19 23:57 | 34.08769 | -78.72109 | 37004 ft | 524 kts | 43° |
| 2026-04-19 23:57 | 34.13478 | -78.65402 | 37005 ft | 523 kts | 43° |
| 2026-04-19 23:58 | 34.18170 | -78.58709 | 37001 ft | 523 kts | 43° |
| 2026-04-19 23:58 | 34.22832 | -78.52048 | 36996 ft | 520 kts | 44° |
| 2026-04-19 23:59 | 34.27846 | -78.45876 | 36981 ft | 511 kts | 34° |
| 2026-04-19 23:59 | 34.33185 | -78.40204 | 36967 ft | 511 kts | 34° |
| 2026-04-20 00:00 | 34.38518 | -78.34511 | 36949 ft | 510 kts | 34° |
| 2026-04-20 00:00 | 34.43840 | -78.28808 | 36965 ft | 511 kts | 34° |
| 2026-04-20 00:01 | 34.49139 | -78.23132 | 36966 ft | 512 kts | 35° |
| 2026-04-20 00:02 | 34.57125 | -78.14536 | 36969 ft | 512 kts | 35° |
| 2026-04-20 00:02 | 34.62467 | -78.08781 | 36989 ft | 515 kts | 36° |
| 2026-04-20 00:03 | 34.67832 | -78.02984 | 37017 ft | 517 kts | 35° |
| 2026-04-20 00:03 | 34.73198 | -77.97202 | 36980 ft | 514 kts | 37° |
| 2026-04-20 00:04 | 34.78518 | -77.91458 | 36946 ft | 510 kts | 35° |
| 2026-04-20 00:04 | 34.83800 | -77.85709 | 36943 ft | 512 kts | 36° |
| 2026-04-20 00:05 | 34.89135 | -77.79913 | 36976 ft | 519 kts | 34° |
| 2026-04-20 00:05 | 34.94648 | -77.74227 | 36982 ft | 520 kts | 35° |
| 2026-04-20 00:06 | 35.00202 | -77.68576 | 36980 ft | 520 kts | 34° |
| 2026-04-20 00:06 | 35.05722 | -77.62872 | 36978 ft | 520 kts | 34° |
| 2026-04-20 00:07 | 35.11175 | -77.57179 | 36960 ft | 519 kts | 35° |
| 2026-04-20 00:07 | 35.14039 | -77.54575 | 36966 ft | 509 kts | 24° |
| 2026-04-20 00:07 | 35.17133 | -77.52586 | 36950 ft | 499 kts | 17° |
| 2026-04-20 00:08 | 35.23491 | -77.49233 | 36954 ft | 498 kts | 14° |
| 2026-04-20 00:08 | 35.29841 | -77.45839 | 36975 ft | 499 kts | 17° |
| 2026-04-20 00:09 | 35.36158 | -77.42405 | 36976 ft | 497 kts | 16° |
| 2026-04-20 00:09 | 35.42479 | -77.38977 | 36958 ft | 497 kts | 16° |
| 2026-04-20 00:10 | 35.48781 | -77.35574 | 36334 ft | 501 kts | 16° |
| 2026-04-20 00:10 | 35.51982 | -77.33858 | 35542 ft | 502 kts | 16° |
| 2026-04-20 00:10 | 35.55194 | -77.32120 | 34740 ft | 507 kts | 17° |
| 2026-04-20 00:10 | 35.58432 | -77.30370 | 33935 ft | 511 kts | 18° |
| 2026-04-20 00:11 | 35.61703 | -77.28599 | 32946 ft | 517 kts | 18° |
| 2026-04-20 00:11 | 35.65004 | -77.26807 | 31979 ft | 520 kts | 18° |
| 2026-04-20 00:11 | 35.68321 | -77.25010 | 31024 ft | 525 kts | 19° |
| 2026-04-20 00:11 | 35.71657 | -77.23204 | 30329 ft | 521 kts | 19° |
| 2026-04-20 00:12 | 35.74963 | -77.21406 | 29612 ft | 517 kts | 19° |
| 2026-04-20 00:12 | 35.78228 | -77.19620 | 28988 ft | 510 kts | 19° |
| 2026-04-20 00:12 | 35.81453 | -77.17850 | 28376 ft | 504 kts | 19° |
| 2026-04-20 00:12 | 35.84641 | -77.16108 | 27718 ft | 500 kts | 18° |
| 2026-04-20 00:13 | 35.87807 | -77.14380 | 27098 ft | 495 kts | 18° |
| 2026-04-20 00:13 | 35.90942 | -77.12667 | 26478 ft | 490 kts | 18° |
| 2026-04-20 00:13 | 35.94045 | -77.10971 | 25884 ft | 485 kts | 18° |
| 2026-04-20 00:13 | 35.97114 | -77.09293 | 25304 ft | 480 kts | 19° |
| 2026-04-20 00:14 | 36.00116 | -77.07650 | 24730 ft | 476 kts | 19° |
| 2026-04-20 00:14 | 36.03127 | -77.06005 | 24173 ft | 471 kts | 19° |
| 2026-04-20 00:14 | 36.06114 | -77.04371 | 23642 ft | 466 kts | 19° |
| 2026-04-20 00:14 | 36.09066 | -77.02750 | 22959 ft | 463 kts | 19° |
| 2026-04-20 00:15 | 36.11997 | -77.01139 | 22295 ft | 459 kts | 19° |
| 2026-04-20 00:15 | 36.14906 | -76.99542 | 21651 ft | 455 kts | 19° |
| 2026-04-20 00:15 | 36.17783 | -76.97963 | 21013 ft | 451 kts | 19° |
| 2026-04-20 00:15 | 36.20640 | -76.96391 | 20388 ft | 447 kts | 19° |
| 2026-04-20 00:16 | 36.23468 | -76.94831 | 19776 ft | 444 kts | 19° |
| 2026-04-20 00:16 | 36.26278 | -76.93278 | 19182 ft | 440 kts | 19° |
| 2026-04-20 00:16 | 36.29064 | -76.91738 | 18602 ft | 438 kts | 19° |
| 2026-04-20 00:16 | 36.31838 | -76.90203 | 17983 ft | 435 kts | 19° |
| 2026-04-20 00:17 | 36.34553 | -76.88700 | 17336 ft | 432 kts | 20° |
| 2026-04-20 00:17 | 36.37179 | -76.86871 | 16698 ft | 435 kts | 33° |
| 2026-04-20 00:17 | 36.39441 | -76.84391 | 16129 ft | 433 kts | 44° |
| 2026-04-20 00:17 | 36.41330 | -76.81973 | 15459 ft | 423 kts | 45° |
| 2026-04-20 00:18 | 36.43362 | -76.79361 | 14289 ft | 416 kts | 45° |
| 2026-04-20 00:18 | 36.45322 | -76.76839 | 13805 ft | 392 kts | 46° |
| 2026-04-20 00:18 | 36.47163 | -76.74474 | 13239 ft | 372 kts | 46° |
| 2026-04-20 00:18 | 36.48903 | -76.72242 | 13054 ft | 346 kts | 46° |
| 2026-04-20 00:19 | 36.50546 | -76.70132 | 12945 ft | 335 kts | 46° |
| 2026-04-20 00:19 | 36.52149 | -76.68076 | 12730 ft | 328 kts | 45° |
| 2026-04-20 00:19 | 36.53706 | -76.66089 | 12380 ft | 323 kts | 45° |
| 2026-04-20 00:19 | 36.55290 | -76.64129 | 11954 ft | 319 kts | 44° |
| 2026-04-20 00:20 | 36.56861 | -76.62224 | 11616 ft | 313 kts | 43° |
| 2026-04-20 00:20 | 36.58432 | -76.60367 | 11187 ft | 310 kts | 38° |
| 2026-04-20 00:20 | 36.60268 | -76.59060 | 10803 ft | 301 kts | 14° |
| 2026-04-20 00:20 | 36.62286 | -76.58653 | 10454 ft | 287 kts | 351° |
| 2026-04-20 00:21 | 36.64200 | -76.59068 | 10110 ft | 277 kts | 337° |
| 2026-04-20 00:21 | 36.66060 | -76.59678 | 9747 ft | 275 kts | 337° |
| 2026-04-20 00:21 | 36.67902 | -76.60278 | 9418 ft | 272 kts | 338° |
| 2026-04-20 00:21 | 36.69709 | -76.60852 | 9294 ft | 267 kts | 337° |
| 2026-04-20 00:22 | 36.71503 | -76.61426 | 9180 ft | 265 kts | 337° |
| 2026-04-20 00:22 | 36.73290 | -76.62007 | 9001 ft | 266 kts | 336° |
| 2026-04-20 00:22 | 36.75054 | -76.62579 | 8544 ft | 265 kts | 337° |
| 2026-04-20 00:22 | 36.76844 | -76.63153 | 8074 ft | 265 kts | 337° |
| 2026-04-20 00:23 | 36.78636 | -76.63735 | 7568 ft | 267 kts | 338° |
| 2026-04-20 00:23 | 36.80430 | -76.64320 | 7108 ft | 266 kts | 338° |
| 2026-04-20 00:23 | 36.82197 | -76.64895 | 6744 ft | 260 kts | 338° |
| 2026-04-20 00:23 | 36.83934 | -76.65460 | 6390 ft | 254 kts | 338° |
| 2026-04-20 00:24 | 36.85630 | -76.66011 | 6008 ft | 250 kts | 338° |
| 2026-04-20 00:24 | 36.87300 | -76.66550 | 5540 ft | 247 kts | 339° |
| 2026-04-20 00:24 | 36.88964 | -76.67087 | 5121 ft | 246 kts | 340° |
| 2026-04-20 00:24 | 36.90624 | -76.67625 | 4687 ft | 246 kts | 340° |
| 2026-04-20 00:25 | 36.92280 | -76.68164 | 4228 ft | 245 kts | 340° |
| 2026-04-20 00:25 | 36.93885 | -76.68688 | 3987 ft | 237 kts | 340° |
| 2026-04-20 00:25 | 36.95494 | -76.69213 | 3986 ft | 235 kts | 340° |
| 2026-04-20 00:25 | 36.97068 | -76.69723 | 4016 ft | 232 kts | 342° |
| 2026-04-20 00:26 | 36.98599 | -76.70220 | 3999 ft | 229 kts | 343° |
| 2026-04-20 00:26 | 37.00175 | -76.70418 | 3816 ft | 230 kts | 2° |
| 2026-04-20 00:26 | 37.01709 | -76.69912 | 3632 ft | 226 kts | 22° |
| 2026-04-20 00:26 | 37.02967 | -76.68785 | 3414 ft | 224 kts | 42° |
| 2026-04-20 00:27 | 37.03870 | -76.67215 | 3166 ft | 218 kts | 53° |
| 2026-04-20 00:27 | 37.04656 | -76.65651 | 2880 ft | 206 kts | 52° |
| 2026-04-20 00:27 | 37.05410 | -76.64158 | 2614 ft | 198 kts | 52° |
| 2026-04-20 00:27 | 37.06096 | -76.62798 | 2346 ft | 176 kts | 51° |
| 2026-04-20 00:28 | 37.06725 | -76.61556 | 2107 ft | 161 kts | 50° |
| 2026-04-20 00:28 | 37.07310 | -76.60402 | 1903 ft | 155 kts | 51° |
| 2026-04-20 00:28 | 37.07878 | -76.59283 | 1697 ft | 153 kts | 50° |
| 2026-04-20 00:28 | 37.08424 | -76.58200 | 1510 ft | 142 kts | 50° |
| 2026-04-20 00:29 | 37.08941 | -76.57179 | 1320 ft | 137 kts | 51° |
| 2026-04-20 00:29 | 37.09452 | -76.56171 | 1142 ft | 136 kts | 49° |
| 2026-04-20 00:29 | 37.09954 | -76.55180 | 958 ft | 136 kts | 50° |
| 2026-04-20 00:29 | 37.10464 | -76.54171 | 801 ft | 138 kts | 50° |
| 2026-04-20 00:30 | 37.10989 | -76.53133 | 621 ft | 144 kts | 54° |
| 2026-04-20 00:30 | 37.11536 | -76.52052 | 428 ft | 149 kts | 58° |
| 2026-04-20 00:30 | 37.12089 | -76.50957 | 224 ft | 152 kts | 57° |
| 2026-04-20 00:30 | 37.12656 | -76.49826 | 54 ft | 152 kts | 57° |
| 2026-04-20 00:31 | 37.13162 | -76.48816 | 46 ft | 116 kts | 58° |
| 2026-04-20 00:31 | 37.13423 | -76.48313 | 48 ft | 27 kts | 58° |
| 2026-04-20 00:31 | 37.13458 | -76.48242 | 48 ft | 7 kts | 59° |
| 2026-04-20 00:31 | 37.13519 | -76.48115 | 47 ft | 25 kts | 59° |
| 2026-04-20 00:32 | 37.13611 | -76.47930 | 45 ft | 24 kts | 58° |
| 2026-04-20 00:32 | 37.13696 | -76.47856 | 45 ft | 9 kts | 338° |
| 2026-04-20 00:32 | 37.13731 | -76.47941 | 46 ft | 12 kts | 265° |
| 2026-04-20 00:32 | 37.13722 | -76.47967 | 46 ft | 0 kts | 244° |
| 2026-04-20 00:33 | 37.11895 | -76.51336 | 278 ft | 151 kts | 56° |
| 2026-04-20 00:33 | 37.12463 | -76.50210 | 100 ft | 153 kts | 58° |
| 2026-04-20 00:33 | 37.13008 | -76.49128 | 46 ft | 136 kts | 57° |
| 2026-04-20 00:34 | 37.13372 | -76.48413 | 47 ft | 56 kts | 57° |